Time;durP1;ratioP1;P1;durP2;ratioP2;P2;SDS_P1;SDS_P2;PMS_P1;PMS_P2;Temp;Humidity;BMP_temperature;BMP_pressure;BME280_temperature;BME280_humidity;BME280_pressure;Samples;Min_cycle;Max_cycle;Signal;HPM_P1;HPM_P2
2023/03/04 00:02:03;;;;;;;48.07;34.60;;;;;;;5.10;100.00;97030.34;5078006;28;20190;-55
2023/03/04 00:04:29;;;;;;;51.27;36.30;;;;;;;5.11;100.00;97032.06;5078257;28;20217;-55
2023/03/04 00:06:55;;;;;;;47.33;33.97;;;;;;;5.13;100.00;97032.81;5074090;28;20206;-56
2023/03/04 00:09:22;;;;;;;51.20;34.57;;;;;;;5.09;100.00;97025.25;5074699;28;20202;-56
2023/03/04 00:11:48;;;;;;;49.13;34.33;;;;;;;5.09;100.00;97026.09;5073442;28;20249;-55
2023/03/04 00:14:15;;;;;;;51.30;35.33;;;;;;;5.11;100.00;97029.44;5073613;28;20677;-54
2023/03/04 00:16:42;;;;;;;48.70;34.57;;;;;;;5.10;100.00;97035.59;5073910;28;20207;-55
2023/03/04 00:19:10;;;;;;;50.30;34.90;;;;;;;5.07;100.00;97032.34;5073485;28;20530;-55
2023/03/04 00:21:37;;;;;;;52.30;36.30;;;;;;;5.05;100.00;97034.22;5073947;28;20287;-55
2023/03/04 00:24:03;;;;;;;51.83;35.80;;;;;;;5.03;100.00;97030.88;5073632;28;20213;-55
2023/03/04 00:26:30;;;;;;;51.10;35.40;;;;;;;4.97;100.00;97029.50;5073670;28;20199;-54
2023/03/04 00:28:56;;;;;;;49.63;34.13;;;;;;;4.99;100.00;97038.09;5073480;28;20214;-55
2023/03/04 00:31:23;;;;;;;55.47;36.87;;;;;;;4.99;100.00;97033.69;5072609;28;20230;-55
2023/03/04 00:33:49;;;;;;;53.63;34.60;;;;;;;4.98;100.00;97032.03;5073425;28;20206;-54
2023/03/04 00:36:17;;;;;;;53.47;36.50;;;;;;;4.94;100.00;97037.56;5073502;28;20203;-55
2023/03/04 00:38:44;;;;;;;49.17;34.93;;;;;;;4.94;100.00;97043.63;5073367;28;20207;-55
2023/03/04 00:41:10;;;;;;;51.20;35.70;;;;;;;4.93;100.00;97041.94;5073423;28;20215;-55
2023/03/04 00:43:37;;;;;;;53.57;36.10;;;;;;;4.87;100.00;97037.13;5072753;28;20606;-55
2023/03/04 00:46:04;;;;;;;56.20;35.97;;;;;;;4.82;100.00;97040.94;5073472;28;20222;-54
2023/03/04 00:48:30;;;;;;;52.87;36.03;;;;;;;4.77;100.00;97036.03;5074358;28;20233;-55
2023/03/04 00:50:57;;;;;;;55.07;35.43;;;;;;;4.73;100.00;97042.41;5073108;28;20218;-56
2023/03/04 00:53:25;;;;;;;49.83;35.57;;;;;;;4.77;100.00;97038.66;5073025;28;20215;-55
2023/03/04 00:55:51;;;;;;;49.43;35.20;;;;;;;4.78;100.00;97044.72;5073258;28;20508;-55
2023/03/04 00:58:18;;;;;;;51.27;35.57;;;;;;;4.81;100.00;97037.50;5072764;28;20191;-54
2023/03/04 01:00:44;;;;;;;55.07;36.13;;;;;;;4.81;100.00;97032.28;5072392;28;20256;-56
2023/03/04 01:03:10;;;;;;;56.03;36.13;;;;;;;4.84;100.00;97037.31;5072813;28;20203;-55
2023/03/04 01:05:37;;;;;;;52.43;36.20;;;;;;;4.82;100.00;97028.69;5073168;28;20207;-56
2023/03/04 01:08:04;;;;;;;56.93;36.30;;;;;;;4.86;100.00;97030.19;5073165;28;20232;-55
2023/03/04 01:10:32;;;;;;;52.17;36.60;;;;;;;4.76;100.00;97028.25;5072762;28;20241;-55
2023/03/04 01:12:59;;;;;;;57.53;35.93;;;;;;;4.79;100.00;97021.03;5072637;28;20603;-55
2023/03/04 01:15:25;;;;;;;54.67;37.13;;;;;;;4.76;100.00;97023.84;5072785;28;20203;-55
2023/03/04 01:17:52;;;;;;;51.03;35.87;;;;;;;4.74;100.00;97023.13;5071852;28;20197;-55
2023/03/04 01:20:18;;;;;;;48.93;34.93;;;;;;;4.72;100.00;97021.53;5071767;28;20213;-56
2023/03/04 01:22:46;;;;;;;52.23;36.67;;;;;;;4.67;100.00;97016.59;5072274;28;20635;-54
2023/03/04 01:25:14;;;;;;;53.07;37.07;;;;;;;4.56;100.00;97015.59;5071929;28;20600;-56
2023/03/04 01:27:42;;;;;;;54.73;36.47;;;;;;;4.40;100.00;97015.69;5072422;28;20222;-55
2023/03/04 01:30:11;;;;;;;55.60;37.27;;;;;;;4.42;100.00;97013.84;5071739;28;20218;-56
2023/03/04 01:32:37;;;;;;;55.93;38.17;;;;;;;4.39;100.00;97014.03;5070741;28;20569;-55
2023/03/04 01:35:04;;;;;;;56.90;37.20;;;;;;;4.24;100.00;97015.84;5073428;28;20210;-55
2023/03/04 01:37:30;;;;;;;53.07;37.10;;;;;;;4.11;100.00;97014.09;5073578;28;20211;-54
2023/03/04 01:39:57;;;;;;;58.13;38.00;;;;;;;4.09;100.00;97013.31;5079435;28;20300;-56
2023/03/04 01:42:24;;;;;;;59.77;37.53;;;;;;;4.00;100.00;97009.50;5074449;28;20619;-55
2023/03/04 01:44:52;;;;;;;56.33;37.97;;;;;;;3.91;100.00;97015.28;5073296;28;20260;-53
2023/03/04 01:47:19;;;;;;;54.20;36.90;;;;;;;3.87;100.00;97017.25;5071994;28;20535;-55
2023/03/04 01:49:48;;;;;;;52.83;36.60;;;;;;;3.77;100.00;97015.28;5071513;28;20234;-55
2023/03/04 01:52:14;;;;;;;53.00;35.90;;;;;;;3.68;100.00;97010.63;5072095;28;20222;-54
2023/03/04 01:54:41;;;;;;;51.93;35.17;;;;;;;3.60;100.00;97013.69;5071315;28;20209;-55
2023/03/04 01:57:16;;;;;;;52.70;36.23;;;;;;;3.49;100.00;97014.31;5071977;28;20231;-55
2023/03/04 01:59:42;;;;;;;48.93;34.10;;;;;;;3.46;100.00;97011.03;5071918;28;20186;-55
2023/03/04 02:02:13;;;;;;;53.13;36.43;;;;;;;3.33;100.00;97004.88;5071832;28;20198;-55
2023/03/04 02:04:40;;;;;;;54.13;35.83;;;;;;;3.33;100.00;97015.31;5071722;28;20207;-56
2023/03/04 02:07:07;;;;;;;53.30;35.87;;;;;;;3.23;100.00;97012.38;5071676;28;20264;-54
2023/03/04 02:09:34;;;;;;;56.83;38.00;;;;;;;3.13;100.00;97005.16;5071581;28;20210;-55
2023/03/04 02:12:01;;;;;;;56.03;37.30;;;;;;;3.17;100.00;97004.06;5071084;28;20902;-56
2023/03/04 02:14:28;;;;;;;52.80;36.00;;;;;;;3.20;100.00;96998.66;5071788;28;20201;-55
2023/03/04 02:16:54;;;;;;;51.43;36.53;;;;;;;3.11;100.00;97000.03;5071231;28;20198;-55
2023/03/04 02:19:30;;;;;;;51.17;36.07;;;;;;;3.11;100.00;96993.97;5071336;28;20630;-55
2023/03/04 02:21:56;;;;;;;52.97;36.57;;;;;;;3.03;100.00;96990.97;5071490;28;20198;-55
2023/03/04 02:24:32;;;;;;;51.40;36.03;;;;;;;3.06;100.00;96996.00;5071517;28;20741;-55
2023/03/04 02:26:59;;;;;;;54.73;37.03;;;;;;;3.04;100.00;96993.50;5073697;28;20194;-54
2023/03/04 02:29:26;;;;;;;54.87;37.57;;;;;;;3.04;100.00;96995.25;5074231;28;20209;-56
2023/03/04 02:31:53;;;;;;;56.60;38.23;;;;;;;3.04;100.00;96995.25;5074315;28;20234;-55
2023/03/04 02:34:21;;;;;;;52.37;36.03;;;;;;;3.08;100.00;96999.38;5071029;28;20202;-54
2023/03/04 02:36:49;;;;;;;57.53;37.97;;;;;;;3.10;100.00;96993.13;5071292;28;20198;-55
2023/03/04 02:39:25;;;;;;;57.07;37.37;;;;;;;3.07;100.00;97001.16;5071463;28;20195;-55
2023/03/04 02:41:55;;;;;;;53.50;36.97;;;;;;;3.08;100.00;96996.78;5070679;28;20205;-55
2023/03/04 02:44:25;;;;;;;50.47;35.57;;;;;;;3.19;100.00;96999.59;5070945;28;20210;-55
2023/03/04 02:46:52;;;;;;;54.70;36.63;;;;;;;3.18;100.00;97000.53;5071274;28;20237;-56
2023/03/04 02:49:19;;;;;;;53.53;36.60;;;;;;;3.23;100.00;96998.47;5070900;28;20254;-55
2023/03/04 02:51:46;;;;;;;51.10;36.43;;;;;;;3.25;100.00;96999.25;5071128;28;20634;-55
2023/03/04 02:54:16;;;;;;;50.67;33.57;;;;;;;3.25;100.00;96996.63;5071228;28;20206;-54
2023/03/04 02:56:45;;;;;;;56.00;37.13;;;;;;;3.28;100.00;97001.66;5071148;28;20504;-55
2023/03/04 02:59:12;;;;;;;54.80;37.77;;;;;;;3.28;100.00;96999.06;5070540;28;20211;-55
2023/03/04 03:01:39;;;;;;;55.60;36.73;;;;;;;3.28;100.00;96994.66;5071240;28;20214;-54
2023/03/04 03:04:06;;;;;;;50.57;36.90;;;;;;;3.32;100.00;96993.56;5071092;28;20209;-55
2023/03/04 03:06:32;;;;;;;54.90;37.67;;;;;;;3.29;100.00;96990.28;5070837;28;20202;-55
2023/03/04 03:08:59;;;;;;;51.80;35.77;;;;;;;3.33;100.00;96989.19;5070539;28;20657;-54
2023/03/04 03:11:25;;;;;;;55.70;36.40;;;;;;;3.32;100.00;96987.50;5071121;28;20195;-55
2023/03/04 03:13:53;;;;;;;55.27;36.40;;;;;;;3.34;100.00;96990.84;5070869;28;20674;-53
2023/03/04 03:16:20;;;;;;;52.43;36.17;;;;;;;3.32;100.00;96992.72;5070636;28;20217;-56
2023/03/04 03:18:47;;;;;;;52.27;35.40;;;;;;;3.38;100.00;96989.72;5071354;28;20555;-54
2023/03/04 03:21:14;;;;;;;52.47;36.87;;;;;;;3.34;100.00;96993.47;5071263;28;20218;-56
2023/03/04 03:23:41;;;;;;;56.03;37.73;;;;;;;3.38;100.00;96992.34;5071786;28;20202;-55
2023/03/04 03:26:07;;;;;;;54.90;37.17;;;;;;;3.38;100.00;96987.97;5073916;28;20202;-55
2023/03/04 03:28:34;;;;;;;51.20;35.33;;;;;;;3.38;100.00;96987.97;5071104;28;20214;-53
2023/03/04 03:31:00;;;;;;;52.60;36.30;;;;;;;3.39;100.00;96988.81;5070958;28;20369;-55
2023/03/04 03:33:27;;;;;;;52.63;36.03;;;;;;;3.37;100.00;96983.66;5071189;28;20249;-55
2023/03/04 03:35:55;;;;;;;54.03;36.77;;;;;;;3.38;100.00;96982.75;5070998;28;20207;-55
2023/03/04 03:38:21;;;;;;;49.57;36.33;;;;;;;3.42;100.00;96984.25;5070668;28;20347;-56
2023/03/04 03:40:48;;;;;;;50.37;36.37;;;;;;;3.37;100.00;96981.03;5070583;28;20670;-54
2023/03/04 03:43:14;;;;;;;50.10;34.87;;;;;;;3.34;100.00;96986.47;5070498;28;20647;-54
2023/03/04 03:45:41;;;;;;;51.20;35.57;;;;;;;3.38;100.00;96981.91;5070406;28;20568;-54
2023/03/04 03:48:08;;;;;;;49.93;34.83;;;;;;;3.33;100.00;96976.13;5069685;28;20694;-54
2023/03/04 03:50:36;;;;;;;51.90;36.07;;;;;;;3.26;100.00;96980.03;5071058;28;20198;-55
2023/03/04 03:53:04;;;;;;;50.33;35.97;;;;;;;3.27;100.00;96979.91;5070197;28;20234;-56
2023/03/04 03:55:33;;;;;;;46.47;34.80;;;;;;;3.23;100.00;96982.78;5070869;28;20213;-56
2023/03/04 03:57:59;;;;;;;49.63;35.00;;;;;;;3.15;100.00;96979.81;5070900;28;20218;-55
2023/03/04 04:00:26;;;;;;;52.17;35.70;;;;;;;3.13;100.00;96986.88;5071968;28;20225;-56
2023/03/04 04:02:54;;;;;;;48.90;34.63;;;;;;;3.06;100.00;96985.56;5070542;28;20206;-56
2023/03/04 04:05:20;;;;;;;52.67;36.40;;;;;;;3.03;100.00;96980.50;5071377;28;20210;-53
2023/03/04 04:07:47;;;;;;;56.27;36.20;;;;;;;3.05;100.00;96986.50;5071090;28;20267;-55
2023/03/04 04:10:16;;;;;;;47.97;35.33;;;;;;;3.05;100.00;96989.13;5070953;28;20539;-52
2023/03/04 04:12:42;;;;;;;51.60;35.83;;;;;;;3.13;100.00;96994.72;5070667;28;20222;-55
2023/03/04 04:15:10;;;;;;;51.37;34.83;;;;;;;3.06;100.00;96986.41;5070762;28;20210;-55
2023/03/04 04:17:37;;;;;;;46.83;35.77;;;;;;;3.06;100.00;96985.56;5070496;28;20206;-53
2023/03/04 04:20:05;;;;;;;50.13;35.40;;;;;;;3.04;100.00;96983.03;5073562;28;20202;-56
2023/03/04 04:22:31;;;;;;;50.23;35.50;;;;;;;3.07;100.00;96987.25;5073935;28;20208;-56
2023/03/04 04:24:58;;;;;;;49.60;36.10;;;;;;;3.08;100.00;96994.16;5073643;28;20531;-54
2023/03/04 04:27:28;;;;;;;50.70;37.07;;;;;;;3.07;100.00;96988.09;5073444;28;20198;-56
2023/03/04 04:29:54;;;;;;;52.17;36.07;;;;;;;3.15;100.00;96990.25;5073672;28;20523;-55
2023/03/04 04:32:21;;;;;;;52.50;34.97;;;;;;;3.19;100.00;96989.97;5073154;28;20210;-54
2023/03/04 04:34:47;;;;;;;52.37;35.73;;;;;;;3.21;100.00;96989.88;5073432;28;20229;-55
2023/03/04 04:37:14;;;;;;;52.23;37.27;;;;;;;3.31;100.00;96991.03;5073686;28;21440;-53
2023/03/04 04:39:41;;;;;;;53.67;36.30;;;;;;;3.31;100.00;96991.88;5073276;28;20207;-55
2023/03/04 04:42:09;;;;;;;54.13;37.37;;;;;;;3.32;100.00;96992.72;5073649;28;20217;-55
2023/03/04 04:44:37;;;;;;;52.47;36.50;;;;;;;3.31;100.00;96996.25;5073452;28;20209;-55
2023/03/04 04:47:05;;;;;;;49.57;36.20;;;;;;;3.28;100.00;96999.06;5073100;28;20209;-54
2023/03/04 04:49:31;;;;;;;51.37;36.43;;;;;;;3.30;100.00;97005.88;5072608;28;20563;-55
2023/03/04 04:51:58;;;;;;;54.70;36.73;;;;;;;3.33;100.00;96995.22;5073351;28;20260;-54
2023/03/04 04:54:24;;;;;;;52.33;36.90;;;;;;;3.32;100.00;97003.19;5074739;28;20226;-56
2023/03/04 04:56:51;;;;;;;51.67;35.50;;;;;;;3.37;100.00;97001.13;5077907;28;20203;-53
2023/03/04 04:59:17;;;;;;;57.40;37.67;;;;;;;3.37;100.00;97001.97;5078057;28;20213;-55
2023/03/04 05:01:45;;;;;;;52.83;37.13;;;;;;;3.40;100.00;97003.56;5077739;28;20206;-56
2023/03/04 05:04:12;;;;;;;57.70;39.03;;;;;;;3.37;100.00;97008.97;5073139;28;20191;-56
2023/03/04 05:06:38;;;;;;;58.93;39.10;;;;;;;3.33;100.00;97003.06;5073695;28;20202;-56
2023/03/04 05:09:06;;;;;;;58.67;38.17;;;;;;;3.34;100.00;96998.69;5073515;28;20214;-56
2023/03/04 05:11:32;;;;;;;58.30;39.20;;;;;;;3.34;100.00;97011.75;5074249;28;20198;-56
2023/03/04 05:13:59;;;;;;;56.73;37.50;;;;;;;3.29;100.00;97004.22;5073079;28;20566;-55
2023/03/04 05:16:25;;;;;;;57.40;37.40;;;;;;;3.28;100.00;97002.50;5073462;28;20214;-56
2023/03/04 05:18:53;;;;;;;56.57;38.67;;;;;;;3.22;100.00;97002.88;5072983;28;20209;-55
2023/03/04 05:21:20;;;;;;;56.83;38.87;;;;;;;3.15;100.00;97000.72;5072717;28;21492;-54
2023/03/04 05:23:48;;;;;;;57.47;38.93;;;;;;;3.14;100.00;97004.25;5072653;28;20554;-56
2023/03/04 05:26:16;;;;;;;54.33;36.90;;;;;;;3.16;100.00;97007.59;5072640;28;20205;-55
2023/03/04 05:28:44;;;;;;;61.57;38.13;;;;;;;3.04;100.00;97006.56;5071659;28;20205;-56
2023/03/04 05:31:11;;;;;;;57.90;38.90;;;;;;;2.99;100.00;97014.66;5072341;28;20209;-54
2023/03/04 05:33:38;;;;;;;55.20;37.97;;;;;;;2.96;100.00;97011.38;5071950;28;20230;-54
2023/03/04 05:36:07;;;;;;;50.73;35.73;;;;;;;2.92;100.00;97008.09;5072424;28;20202;-54
2023/03/04 05:38:34;;;;;;;49.33;35.03;;;;;;;2.98;100.00;97009.50;5072340;28;20217;-56
2023/03/04 05:41:02;;;;;;;50.87;36.87;;;;;;;2.92;100.00;97008.09;5071915;28;20198;-55
2023/03/04 05:43:29;;;;;;;49.00;34.87;;;;;;;2.89;100.00;97013.50;5071357;28;20212;-55
2023/03/04 05:45:56;;;;;;;47.90;34.77;;;;;;;2.87;100.00;97015.34;5072412;28;20202;-56
2023/03/04 05:48:23;;;;;;;47.87;35.80;;;;;;;2.81;100.00;97014.84;5071900;28;20233;-55
2023/03/04 05:50:53;;;;;;;49.57;34.70;;;;;;;2.83;100.00;97021.69;5072035;28;20213;-55
2023/03/04 05:53:21;;;;;;;51.07;35.80;;;;;;;2.80;100.00;97016.63;5071939;28;20517;-54
2023/03/04 05:55:48;;;;;;;50.67;34.83;;;;;;;2.82;100.00;97020.00;5071802;28;20203;-55
2023/03/04 05:58:15;;;;;;;50.77;35.47;;;;;;;2.85;100.00;97024.19;5071767;28;20213;-55
2023/03/04 06:00:42;;;;;;;50.83;34.97;;;;;;;2.75;100.00;97018.66;5071699;28;20210;-54
2023/03/04 06:03:13;;;;;;;50.57;36.40;;;;;;;2.73;100.00;97023.09;5072176;28;20207;-55
2023/03/04 06:05:40;;;;;;;51.07;35.97;;;;;;;2.76;100.00;97022.97;5072528;28;20233;-55
2023/03/04 06:08:06;;;;;;;50.60;34.63;;;;;;;2.65;100.00;97029.69;5072273;28;20300;-55
2023/03/04 06:10:34;;;;;;;49.90;35.33;;;;;;;2.68;100.00;97027.75;5071150;28;20662;-53
2023/03/04 06:13:02;;;;;;;51.43;35.57;;;;;;;2.67;100.00;97026.06;5071485;28;20228;-56
2023/03/04 06:15:29;;;;;;;49.93;35.50;;;;;;;2.70;100.00;97027.66;5071495;28;20210;-56
2023/03/04 06:17:56;;;;;;;47.97;35.50;;;;;;;2.67;100.00;97035.66;5071190;28;20206;-56
2023/03/04 06:20:22;;;;;;;49.03;35.37;;;;;;;2.68;100.00;97039.97;5071440;28;20605;-53
2023/03/04 06:22:49;;;;;;;56.07;36.67;;;;;;;2.71;100.00;97037.19;5071303;28;20212;-55
2023/03/04 06:25:16;;;;;;;48.73;35.03;;;;;;;2.70;100.00;97040.72;5070904;28;20206;-55
2023/03/04 06:27:46;;;;;;;51.10;34.67;;;;;;;2.70;100.00;97046.78;5071678;28;20201;-55
2023/03/04 06:30:13;;;;;;;48.07;33.93;;;;;;;2.62;100.00;97049.00;5070961;28;20519;-55
2023/03/04 06:32:43;;;;;;;53.03;34.90;;;;;;;2.65;100.00;97053.19;5070794;28;20206;-53
2023/03/04 06:35:10;;;;;;;50.27;34.93;;;;;;;2.69;100.00;97052.09;5070612;28;20198;-54
2023/03/04 06:37:37;;;;;;;50.67;35.73;;;;;;;2.73;100.00;97054.44;5071155;28;20209;-54
2023/03/04 06:40:03;;;;;;;51.73;35.97;;;;;;;2.71;100.00;97051.09;5070304;28;20206;-55
2023/03/04 06:42:30;;;;;;;48.17;35.53;;;;;;;2.67;100.00;97052.19;5071089;28;20267;-55
2023/03/04 06:44:58;;;;;;;51.87;35.87;;;;;;;2.71;100.00;97061.53;5070607;28;20262;-55
2023/03/04 06:47:25;;;;;;;51.00;35.70;;;;;;;2.82;100.00;97064.41;5071505;28;20220;-55
2023/03/04 06:49:52;;;;;;;51.87;35.40;;;;;;;2.89;100.00;97068.34;5070720;28;20226;-54
2023/03/04 06:52:18;;;;;;;47.10;35.00;;;;;;;2.99;100.00;97064.28;5070829;28;20206;-55
2023/03/04 06:54:45;;;;;;;61.17;37.73;;;;;;;3.03;100.00;97075.41;5071287;28;20230;-54
2023/03/04 06:57:12;;;;;;;52.47;36.87;;;;;;;3.11;100.00;97072.38;5071124;28;20643;-55
2023/03/04 06:59:40;;;;;;;48.53;34.83;;;;;;;3.26;100.00;97072.31;5070886;28;20206;-54
2023/03/04 07:02:11;;;;;;;50.80;34.90;;;;;;;3.25;100.00;97069.81;5071383;28;20213;-54
2023/03/04 07:04:38;;;;;;;53.70;36.83;;;;;;;3.21;100.00;97078.75;5071162;28;20205;-55
2023/03/04 07:07:05;;;;;;;55.73;37.57;;;;;;;3.30;100.00;97078.19;5071733;28;20195;-56
2023/03/04 07:09:31;;;;;;;54.27;38.40;;;;;;;3.32;100.00;97079.81;5070872;28;20213;-55
2023/03/04 07:11:58;;;;;;;52.73;36.17;;;;;;;3.25;100.00;97090.72;5071427;28;20202;-56
2023/03/04 07:14:24;;;;;;;55.80;37.33;;;;;;;3.33;100.00;97083.28;5071501;28;20401;-53
2023/03/04 07:16:51;;;;;;;55.03;39.87;;;;;;;3.39;100.00;97088.16;5070720;28;20301;-54
2023/03/04 07:19:21;;;;;;;59.47;39.93;;;;;;;3.48;100.00;97079.75;5071667;28;20214;-55
2023/03/04 07:21:47;;;;;;;55.20;39.37;;;;;;;3.56;100.00;97079.31;5083290;28;20195;-56
2023/03/04 07:24:14;;;;;;;52.53;37.00;;;;;;;3.60;100.00;97081.66;5084258;28;20325;-56
2023/03/04 07:26:41;;;;;;;55.77;38.90;;;;;;;3.72;100.00;97074.88;5082790;28;20279;-56
2023/03/04 07:29:07;;;;;;;56.57;38.60;;;;;;;3.74;100.00;97084.31;5072328;28;20355;-56
2023/03/04 07:31:34;;;;;;;55.17;38.23;;;;;;;3.82;100.00;97089.09;5070745;28;20233;-55
2023/03/04 07:34:03;;;;;;;60.93;40.03;;;;;;;3.96;100.00;97087.34;5070868;28;20233;-55
2023/03/04 07:36:32;;;;;;;58.87;38.43;;;;;;;4.03;100.00;97089.59;5094434;28;20221;-54
2023/03/04 07:38:58;;;;;;;54.47;39.03;;;;;;;4.14;100.00;97089.78;5096676;28;20179;-57
2023/03/04 07:41:27;;;;;;;60.10;40.20;;;;;;;4.31;100.00;97093.06;5095869;28;20195;-55
2023/03/04 07:43:57;;;;;;;54.77;38.17;;;;;;;4.36;100.00;97098.00;5094784;28;20230;-55
2023/03/04 07:46:24;;;;;;;59.03;38.83;;;;;;;4.48;100.00;97097.25;5092990;28;20178;-55
2023/03/04 07:48:50;;;;;;;58.60;39.87;;;;;;;4.49;100.00;97099.78;5097247;28;20289;-57
2023/03/04 07:51:18;;;;;;;61.83;39.23;;;;;;;4.58;100.00;97093.13;5094124;28;20208;-55
2023/03/04 07:53:47;;;;;;;56.00;38.70;;;;;;;4.67;100.00;97087.31;5098625;28;20213;-55
2023/03/04 07:56:15;;;;;;;59.07;39.77;;;;;;;4.73;100.00;97091.31;5098591;28;20179;-55
2023/03/04 07:58:42;;;;;;;57.97;39.17;;;;;;;4.81;100.00;97087.28;5099003;28;20189;-55
2023/03/04 08:01:10;;;;;;;59.07;40.13;;;;;;;4.91;99.50;97091.00;5097124;28;20214;-55
2023/03/04 08:03:36;;;;;;;56.37;40.10;;;;;;;5.04;98.77;97085.81;5094937;28;20198;-55
2023/03/04 08:06:05;;;;;;;55.00;39.20;;;;;;;5.12;97.98;97095.81;5095453;28;20198;-55
2023/03/04 08:08:33;;;;;;;58.87;39.80;;;;;;;5.06;97.50;97097.06;5099764;28;20190;-55
2023/03/04 08:11:03;;;;;;;57.67;40.63;;;;;;;5.05;97.21;97089.28;5098487;28;20202;-55
2023/03/04 08:13:30;;;;;;;55.93;38.37;;;;;;;5.24;96.64;97095.03;5097077;28;20179;-55
2023/03/04 08:15:59;;;;;;;55.90;39.27;;;;;;;5.48;97.58;97088.19;5098605;28;20183;-56
2023/03/04 08:18:26;;;;;;;57.50;40.23;;;;;;;5.63;95.48;97086.34;5095307;28;20190;-55
2023/03/04 08:20:52;;;;;;;58.23;40.70;;;;;;;5.77;93.94;97097.59;5094101;28;20213;-58
2023/03/04 08:23:19;;;;;;;57.53;39.10;;;;;;;5.83;93.29;97091.91;5097098;28;20208;-55
2023/03/04 08:25:46;;;;;;;55.07;39.73;;;;;;;5.91;92.81;97089.66;5100475;28;20189;-55
2023/03/04 08:28:15;;;;;;;55.67;38.87;;;;;;;5.90;92.16;97081.88;5097167;28;20178;-55
2023/03/04 08:30:42;;;;;;;56.67;40.77;;;;;;;5.98;90.98;97090.09;5091080;28;20226;-54
2023/03/04 08:33:09;;;;;;;56.17;40.90;;;;;;;6.16;89.80;97088.00;5099346;28;20246;-56
2023/03/04 08:35:37;;;;;;;56.00;40.03;;;;;;;6.19;87.73;97090.41;5097146;28;20205;-55
2023/03/04 08:38:03;;;;;;;51.17;39.83;;;;;;;6.33;87.80;97085.03;5098770;28;20218;-55
2023/03/04 08:40:30;;;;;;;53.83;38.33;;;;;;;6.47;87.27;97083.13;5097060;28;20242;-54
2023/03/04 08:42:56;;;;;;;53.13;39.10;;;;;;;6.43;85.39;97091.31;5099384;28;20179;-55
2023/03/04 08:45:24;;;;;;;55.57;39.93;;;;;;;6.29;86.80;97084.41;5095290;28;20199;-55
2023/03/04 08:47:51;;;;;;;53.63;39.63;;;;;;;6.31;85.87;97087.75;5098110;28;20210;-55
2023/03/04 08:50:18;;;;;;;54.53;40.17;;;;;;;6.38;86.16;97088.16;5100133;28;20262;-55
2023/03/04 08:52:44;;;;;;;59.17;40.03;;;;;;;6.51;87.73;97091.63;5098758;28;20182;-55
2023/03/04 08:55:10;;;;;;;55.17;38.67;;;;;;;6.74;85.35;97087.38;5098671;28;20222;-54
2023/03/04 08:57:37;;;;;;;56.40;39.67;;;;;;;6.78;84.72;97088.84;5097618;28;20181;-55
2023/03/04 09:00:04;;;;;;;54.90;39.23;;;;;;;6.72;83.77;97095.38;5099677;28;20178;-56
2023/03/04 09:02:32;;;;;;;54.23;38.77;;;;;;;6.91;83.42;97093.13;5097427;28;20222;-55
2023/03/04 09:04:59;;;;;;;52.30;37.93;;;;;;;6.92;82.88;97086.91;5098251;28;20348;-55
2023/03/04 09:07:25;;;;;;;52.83;39.13;;;;;;;7.13;81.85;97086.31;5098001;28;20174;-54
2023/03/04 09:09:51;;;;;;;48.30;36.90;;;;;;;7.22;80.04;97083.03;5097738;28;20191;-55
2023/03/04 09:12:18;;;;;;;51.93;38.63;;;;;;;7.16;79.35;97080.81;5099161;28;20206;-55
2023/03/04 09:14:45;;;;;;;49.43;38.43;;;;;;;7.51;80.57;97077.28;5099399;28;20202;-55
2023/03/04 09:17:12;;;;;;;54.67;38.50;;;;;;;7.77;79.35;97077.16;5098762;28;20203;-55
2023/03/04 09:19:40;;;;;;;52.00;39.00;;;;;;;8.13;76.94;97074.38;5095023;28;20194;-55
2023/03/04 09:22:09;;;;;;;52.03;37.70;;;;;;;8.37;76.22;97069.03;5095649;28;20190;-56
2023/03/04 09:24:38;;;;;;;51.93;38.77;;;;;;;8.19;73.89;97070.41;5098627;28;20254;-56
2023/03/04 09:27:05;;;;;;;49.53;38.53;;;;;;;8.45;73.00;97066.63;5089416;28;20202;-55
2023/03/04 09:29:31;;;;;;;49.67;38.17;;;;;;;8.75;72.23;97061.56;5096655;28;20199;-55
2023/03/04 09:31:58;;;;;;;49.30;38.13;;;;;;;8.53;72.84;97066.88;5095524;28;20201;-56
2023/03/04 09:34:24;;;;;;;51.57;38.80;;;;;;;8.93;73.20;97065.38;5098640;28;20198;-55
2023/03/04 09:36:52;;;;;;;51.30;36.80;;;;;;;9.27;71.62;97057.41;5093857;28;20191;-55
2023/03/04 09:39:19;;;;;;;52.03;38.27;;;;;;;9.36;70.21;97062.75;5096977;28;20187;-55
2023/03/04 09:41:47;;;;;;;49.37;37.27;;;;;;;9.48;69.42;97059.13;5094488;28;20194;-55
2023/03/04 09:44:19;;;;;;;45.77;36.53;;;;;;;9.81;69.33;97063.41;5093486;28;20191;-55
2023/03/04 09:46:48;;;;;;;52.03;37.67;;;;;;;10.20;67.27;97058.41;5093798;28;20183;-56
2023/03/04 09:49:15;;;;;;;54.27;38.07;;;;;;;10.26;67.40;97063.19;5095999;28;20217;-56
2023/03/04 09:51:59;;;;;;;49.90;37.57;;;;;;;10.64;66.58;97068.66;5095447;28;20186;-55
2023/03/04 09:54:51;;;;;;;46.80;36.87;;;;;;;11.22;64.14;97063.53;5092564;28;20214;-55
2023/03/04 09:57:26;;;;;;;47.07;37.43;;;;;;;11.43;63.04;97051.84;5075972;28;20214;-54
2023/03/04 10:00:00;;;;;;;48.63;36.63;;;;;;;11.62;63.12;97055.50;5074631;28;20210;-55
2023/03/04 10:02:33;;;;;;;46.83;36.27;;;;;;;12.08;63.15;97058.25;5082827;28;20209;-56
2023/03/04 10:05:03;;;;;;;43.83;34.97;;;;;;;12.57;61.52;97051.03;5093509;28;20195;-57
2023/03/04 10:07:35;;;;;;;47.57;36.43;;;;;;;12.66;60.18;97048.31;5087525;28;20226;-54
2023/03/04 10:10:04;;;;;;;44.93;36.87;;;;;;;13.15;58.93;97048.94;5073256;28;20203;-55
2023/03/04 10:12:33;;;;;;;48.70;36.97;;;;;;;13.59;58.22;97041.94;5072723;28;20209;-55
2023/03/04 10:15:01;;;;;;;44.00;36.23;;;;;;;13.78;56.09;97042.59;5072595;28;20236;-57
2023/03/04 10:17:35;;;;;;;46.77;36.87;;;;;;;13.68;55.93;97041.00;5070908;28;20218;-55
2023/03/04 10:20:04;;;;;;;46.73;36.50;;;;;;;13.57;55.96;97039.41;5072747;28;21383;-55
2023/03/04 10:22:36;;;;;;;42.90;35.27;;;;;;;13.11;56.24;97036.97;5072032;28;20205;-54
2023/03/04 10:25:16;;;;;;;43.70;35.27;;;;;;;12.90;55.46;97039.81;5071748;28;20518;-56
2023/03/04 10:27:42;;;;;;;42.70;34.93;;;;;;;12.68;56.54;97040.22;5071878;28;20190;-56
2023/03/04 10:30:21;;;;;;;43.33;35.03;;;;;;;12.58;56.40;97037.59;5071611;28;20211;-56
2023/03/04 10:32:48;;;;;;;44.50;35.50;;;;;;;12.56;57.14;97042.22;5071726;28;20187;-55
2023/03/04 10:35:14;;;;;;;45.00;35.60;;;;;;;13.25;55.88;97029.31;5073560;28;20685;-55
2023/03/04 10:37:49;;;;;;;44.23;36.20;;;;;;;12.89;56.23;97027.56;5072451;28;20206;-56
2023/03/04 10:40:21;;;;;;;45.23;36.37;;;;;;;12.93;56.70;97024.44;5072295;28;20258;-55
2023/03/04 10:42:49;;;;;;;45.03;36.93;;;;;;;13.07;55.75;97035.56;5072311;28;20202;-55
2023/03/04 10:45:20;;;;;;;47.90;37.33;;;;;;;13.18;55.16;97027.44;5070505;28;20213;-55
2023/03/04 10:47:52;;;;;;;42.47;36.37;;;;;;;13.18;55.39;97024.78;5072069;28;20313;-55
2023/03/04 10:50:23;;;;;;;45.10;36.00;;;;;;;13.70;54.17;97018.63;5072320;28;20217;-55
2023/03/04 10:52:54;;;;;;;44.37;36.40;;;;;;;14.05;53.78;97022.22;5070735;28;20233;-55
2023/03/04 10:55:23;;;;;;;42.38;35.63;;;;;;;14.33;53.92;97021.09;5072249;28;20226;-56
2023/03/04 10:57:52;;;;;;;48.03;37.00;;;;;;;14.25;53.31;97021.03;5076600;28;20202;-56
2023/03/04 11:00:59;;;;;;;51.15;35.70;;;;;;;14.28;52.82;97015.38;5086621;28;20546;-57
2023/03/04 11:03:31;;;;;;;46.15;35.85;;;;;;;14.47;52.77;97009.03;5085960;28;20194;-56
2023/03/04 11:06:11;;;;;;;45.97;36.20;;;;;;;15.22;53.07;97009.03;5073435;28;20285;-54
2023/03/04 11:08:41;;;;;;;41.92;35.78;;;;;;;15.24;51.29;97019.50;5074401;28;20226;-56
2023/03/04 11:11:25;;;;;;;41.97;35.88;;;;;;;15.17;50.30;97006.00;5072089;28;20213;-56
2023/03/04 11:13:54;;;;;;;44.25;36.33;;;;;;;15.34;50.59;97001.53;5075327;28;20214;-56
2023/03/04 11:16:25;;;;;;;50.80;37.88;;;;;;;15.85;49.60;96995.13;5088139;28;20230;-56
2023/03/04 11:18:53;;;;;;;44.35;37.30;;;;;;;16.20;47.70;96997.44;5085682;28;20546;-56
2023/03/04 11:21:24;;;;;;;43.00;37.17;;;;;;;15.85;49.10;96990.63;5073850;28;20213;-58
2023/03/04 11:23:56;;;;;;;46.67;36.55;;;;;;;16.36;47.50;96988.56;5072660;28;20206;-56